Terminal Aerodrome Forecast
Issued by NWS

Home | Current Version | Previous Version | Text Only | Print | Product List | Glossary On
Versions: 1 2 3 4 5 6 7 8 9 10 11 12 13 14 15 16 17 18 19
000
FTUS46 KSEW 250523
TAFOLM
TAF
KOLM 250523Z 2506/2606 19006KT P6SM VCSH SCT022 BKN040
      TEMPO 2506/2509 -SHRA
     FM250900 21009KT P6SM VCSH SCT010 BKN022 OVC040
      TEMPO 2509/2513 5SM SHRA BKN010 OVC022
     FM251300 21005KT P6SM VCSH FEW009 BKN025 OVC050
     FM251800 23008KT P6SM VCSH SCT028 BKN050 PROB30 2518/2524 -SHRA
      BKN028 OVC050
     FM260000 VRB03KT P6SM SCT050 BKN200=

USA.gov is the U.S. government's official web portal to all federal, state and local government web resources and services.